Time;durP1;ratioP1;P1;durP2;ratioP2;P2;SDS_P1;SDS_P2;PMS_P1;PMS_P2;Temp;Humidity;BMP_temperature;BMP_pressure;BME280_temperature;BME280_humidity;BME280_pressure;Samples;Min_cycle;Max_cycle;Signal;HPM_P1;HPM_P2
2023/08/03 01:16:45;;;;;;;0.40;0.40;;;;;;;;;;6241311;22;20243;-90
2023/08/03 01:19:52;;;;;;;1.15;0.75;;;;;;;;;;6272853;22;20169;-92
2023/08/03 01:23:01;;;;;;;0.30;0.30;;;;;;;;;;6273653;22;20244;-90
2023/08/03 01:26:06;;;;;;;0.68;0.55;;;;;;;;;;6272995;22;20170;-91
2023/08/03 01:29:11;;;;;;;0.38;0.38;;;;;;;;;;6272237;22;20166;-90
2023/08/03 01:32:17;;;;;;;0.28;0.28;;;;;;;;;;6273222;22;20205;-90
2023/08/03 01:35:23;;;;;;;0.75;0.55;;;;;;;;;;6276065;22;20193;-91
2023/08/03 01:38:31;;;;;;;0.20;0.20;;;;;;;;;;6272754;22;20166;-91
2023/08/03 01:41:36;;;;;;;0.40;0.40;;;;;;;;;;6272171;22;20185;-90
2023/08/03 01:44:42;;;;;;;0.50;0.50;;;;;;;;;;6271318;22;20223;-90
2023/08/03 01:47:47;;;;;;;0.50;0.50;;;;;;;;;;6270805;22;20149;-90
2023/08/03 01:55:13;;;;;;;0.28;0.28;;;;;;;;;;6293392;22;20189;-91
2023/08/03 01:58:18;;;;;;;0.30;0.30;;;;;;;;;;6275852;22;20169;-90
2023/08/03 02:01:23;;;;;;;1.55;0.82;;;;;;;;;;6273983;22;20170;-92
2023/08/03 02:04:28;;;;;;;0.40;0.40;;;;;;;;;;6271382;22;20166;-92
2023/08/03 02:07:43;;;;;;;0.50;0.50;;;;;;;;;;6270270;22;20162;-92
2023/08/03 02:10:51;;;;;;;0.45;0.45;;;;;;;;;;6271040;22;20166;-93
2023/08/03 02:13:56;;;;;;;0.30;0.30;;;;;;;;;;6272499;22;20247;-91
2023/08/03 02:17:01;;;;;;;0.52;0.52;;;;;;;;;;6272315;22;20186;-92
2023/08/03 02:20:07;;;;;;;0.70;0.43;;;;;;;;;;6271413;22;20165;-92
2023/08/03 02:23:12;;;;;;;0.30;0.30;;;;;;;;;;6271595;22;20226;-92
2023/08/03 02:26:18;;;;;;;0.77;0.70;;;;;;;;;;6269465;22;20165;-91
2023/08/03 02:29:24;;;;;;;0.50;0.50;;;;;;;;;;6270280;22;20157;-90
2023/08/03 02:32:29;;;;;;;0.25;0.25;;;;;;;;;;6271395;22;20228;-91
2023/08/03 02:35:41;;;;;;;0.38;0.38;;;;;;;;;;6275396;22;20185;-91
2023/08/03 02:38:46;;;;;;;1.25;0.65;;;;;;;;;;6273983;22;20170;-90
2023/08/03 02:41:55;;;;;;;0.60;0.57;;;;;;;;;;6273357;22;20184;-90
2023/08/03 02:45:06;;;;;;;0.30;0.30;;;;;;;;;;6274925;22;20216;-91
2023/08/03 02:48:20;;;;;;;0.20;0.20;;;;;;;;;;6274487;22;20162;-91
2023/08/03 02:51:28;;;;;;;0.63;0.63;;;;;;;;;;6272178;22;20170;-90
2023/08/03 02:54:33;;;;;;;0.32;0.32;;;;;;;;;;6274601;22;20198;-92
2023/08/03 02:57:40;;;;;;;0.30;0.30;;;;;;;;;;6272486;22;20169;-90
2023/08/03 03:00:48;;;;;;;0.30;0.30;;;;;;;;;;6273316;22;20204;-90
2023/08/03 03:03:54;;;;;;;2.55;0.80;;;;;;;;;;6272519;22;20177;-90
2023/08/03 03:07:00;;;;;;;2.45;0.88;;;;;;;;;;6276181;22;20150;-90
2023/08/03 03:10:06;;;;;;;26.83;1.23;;;;;;;;;;6273484;22;20145;-90
2023/08/03 03:13:12;;;;;;;0.90;0.55;;;;;;;;;;6273954;22;20177;-90
2023/08/03 03:16:25;;;;;;;0.28;0.28;;;;;;;;;;6272994;22;20166;-90
2023/08/03 03:19:32;;;;;;;0.57;0.50;;;;;;;;;;6273287;22;20196;-91
2023/08/03 03:22:39;;;;;;;0.28;0.28;;;;;;;;;;6273260;22;20166;-89
2023/08/03 03:25:44;;;;;;;0.57;0.57;;;;;;;;;;6270581;22;20261;-89
2023/08/03 03:28:52;;;;;;;0.30;0.30;;;;;;;;;;6272578;22;20162;-91
2023/08/03 03:32:04;;;;;;;0.98;0.60;;;;;;;;;;6276744;22;20157;-91
2023/08/03 03:39:31;;;;;;;1.05;0.35;;;;;;;;;;6292996;22;20212;-90
2023/08/03 03:42:41;;;;;;;0.40;0.40;;;;;;;;;;6275905;22;20170;-90
2023/08/03 03:45:50;;;;;;;0.30;0.30;;;;;;;;;;6272739;22;20626;-91
2023/08/03 03:48:57;;;;;;;0.30;0.30;;;;;;;;;;6274528;22;20166;-91
2023/08/03 03:52:01;;;;;;;10.90;1.45;;;;;;;;;;6273790;22;20161;-90
2023/08/03 03:55:08;;;;;;;1.23;0.90;;;;;;;;;;6272583;22;20523;-90
2023/08/03 03:58:14;;;;;;;0.25;0.25;;;;;;;;;;6274443;22;20149;-92
2023/08/03 04:05:09;;;;;;;2.63;1.15;;;;;;;;;;6272848;22;20158;-91
2023/08/03 04:08:15;;;;;;;0.43;0.43;;;;;;;;;;6272245;22;20196;-91
2023/08/03 04:11:20;;;;;;;0.47;0.47;;;;;;;;;;6272941;22;20216;-91
2023/08/03 04:14:27;;;;;;;0.30;0.30;;;;;;;;;;6274259;22;20264;-90
2023/08/03 04:17:32;;;;;;;0.40;0.40;;;;;;;;;;6274294;22;20185;-92
2023/08/03 04:20:38;;;;;;;0.40;0.40;;;;;;;;;;6274319;22;20289;-90
2023/08/03 04:23:44;;;;;;;0.38;0.38;;;;;;;;;;6273872;22;20169;-91
2023/08/03 04:26:50;;;;;;;0.38;0.38;;;;;;;;;;6276276;22;20619;-91
2023/08/03 04:30:00;;;;;;;0.32;0.32;;;;;;;;;;6277647;22;20238;-91
2023/08/03 04:33:09;;;;;;;0.60;0.60;;;;;;;;;;6275245;22;20610;-90
2023/08/03 04:36:31;;;;;;;0.30;0.30;;;;;;;;;;6276378;22;20197;-91
2023/08/03 04:39:36;;;;;;;0.50;0.50;;;;;;;;;;6277307;22;20165;-90
2023/08/03 04:42:41;;;;;;;3.92;1.13;;;;;;;;;;6279559;22;20197;-91
2023/08/03 04:45:49;;;;;;;0.50;0.50;;;;;;;;;;6280417;22;20248;-91
2023/08/03 04:48:55;;;;;;;0.32;0.32;;;;;;;;;;6278642;22;20178;-90
2023/08/03 04:52:06;;;;;;;0.40;0.40;;;;;;;;;;6279064;22;20212;-90
2023/08/03 04:55:12;;;;;;;0.38;0.38;;;;;;;;;;6275279;22;20194;-90
2023/08/03 04:58:17;;;;;;;1.55;0.70;;;;;;;;;;6277424;22;20228;-91
2023/08/03 05:01:26;;;;;;;0.63;0.63;;;;;;;;;;6279655;22;20170;-92
2023/08/03 05:04:33;;;;;;;0.40;0.40;;;;;;;;;;6278925;22;20169;-93
2023/08/03 05:07:45;;;;;;;0.45;0.45;;;;;;;;;;6278962;22;20645;-93
2023/08/03 05:10:52;;;;;;;0.63;0.63;;;;;;;;;;6283084;22;20185;-93
2023/08/03 05:13:59;;;;;;;0.60;0.60;;;;;;;;;;6280483;22;20166;-93
2023/08/03 05:17:07;;;;;;;0.68;0.68;;;;;;;;;;6281510;22;20209;-92
2023/08/03 05:20:14;;;;;;;1.80;1.05;;;;;;;;;;6281226;22;20181;-93
2023/08/03 05:23:22;;;;;;;0.30;0.30;;;;;;;;;;6279170;22;20165;-92
2023/08/03 05:26:28;;;;;;;0.30;0.30;;;;;;;;;;6280264;22;20185;-94
2023/08/03 05:29:33;;;;;;;0.20;0.20;;;;;;;;;;6276753;22;20166;-91
2023/08/03 05:32:38;;;;;;;0.40;0.40;;;;;;;;;;6277161;22;20190;-89
2023/08/03 13:10:56;;;;;;;3.55;1.35;;;;;;;;;;6256023;22;20194;-89
2023/08/03 13:18:17;;;;;;;5.65;1.63;;;;;;;;;;6294899;22;20178;-89
2023/08/03 13:21:23;;;;;;;5.22;1.38;;;;;;;;;;6278813;22;20170;-90
2023/08/03 13:24:28;;;;;;;9.55;1.65;;;;;;;;;;6274568;22;20174;-90
2023/08/03 13:27:35;;;;;;;7.32;1.63;;;;;;;;;;6272563;22;20173;-89
2023/08/03 13:30:42;;;;;;;11.25;2.22;;;;;;;;;;6276133;22;20174;-87
2023/08/03 13:33:47;;;;;;;7.03;1.75;;;;;;;;;;6279842;22;20268;-91
2023/08/03 13:40:12;;;;;;;5.90;1.77;;;;;;;;;;6279464;22;20631;-89
2023/08/03 13:43:19;;;;;;;8.32;1.70;;;;;;;;;;6277499;22;20166;-89
2023/08/03 13:46:25;;;;;;;8.35;1.80;;;;;;;;;;6277321;22;20235;-91
2023/08/03 13:49:30;;;;;;;7.72;1.85;;;;;;;;;;6276979;22;20162;-89
2023/08/03 13:52:36;;;;;;;6.60;1.60;;;;;;;;;;6275992;22;20166;-90
2023/08/03 13:55:42;;;;;;;7.97;1.90;;;;;;;;;;6275919;22;20229;-89
2023/08/03 13:58:49;;;;;;;6.40;2.17;;;;;;;;;;6274473;22;20166;-89
2023/08/03 14:01:54;;;;;;;6.03;1.80;;;;;;;;;;6275439;22;20165;-89
2023/08/03 14:04:59;;;;;;;11.25;2.08;;;;;;;;;;6276586;22;20170;-91
2023/08/03 14:08:04;;;;;;;7.22;1.90;;;;;;;;;;6272696;22;20227;-87
2023/08/03 14:11:10;;;;;;;5.65;1.60;;;;;;;;;;6272981;22;20193;-89
2023/08/03 14:14:20;;;;;;;8.23;1.80;;;;;;;;;;6272321;22;20166;-90
2023/08/03 14:17:26;;;;;;;7.30;2.38;;;;;;;;;;6276119;22;20259;-91
2023/08/03 14:20:32;;;;;;;7.20;1.85;;;;;;;;;;6275506;22;20182;-89
2023/08/03 14:23:37;;;;;;;10.30;1.60;;;;;;;;;;6273913;22;20169;-88
2023/08/03 14:26:51;;;;;;;8.52;2.10;;;;;;;;;;6274301;22;20189;-90
2023/08/03 14:30:00;;;;;;;5.15;1.88;;;;;;;;;;6274524;22;20158;-89
2023/08/03 14:33:06;;;;;;;6.10;1.70;;;;;;;;;;6277057;22;20173;-91
2023/08/03 14:36:30;;;;;;;7.50;1.90;;;;;;;;;;6276445;22;20197;-91
2023/08/03 14:39:39;;;;;;;3.83;1.50;;;;;;;;;;6276118;22;20239;-90
2023/08/03 14:42:45;;;;;;;3.58;1.58;;;;;;;;;;6273125;22;20166;-89
2023/08/03 14:45:53;;;;;;;7.75;2.10;;;;;;;;;;6277882;22;20149;-89
2023/08/03 14:48:59;;;;;;;5.43;1.63;;;;;;;;;;6275391;22;20162;-89
2023/08/03 14:52:04;;;;;;;8.80;2.00;;;;;;;;;;6275668;22;20154;-89
2023/08/03 14:55:13;;;;;;;3.58;1.60;;;;;;;;;;6275122;22;20156;-90
2023/08/03 14:58:19;;;;;;;6.60;1.70;;;;;;;;;;6275287;22;20165;-91
2023/08/03 15:01:27;;;;;;;9.55;2.33;;;;;;;;;;6274431;22;20172;-91
2023/08/03 15:04:37;;;;;;;5.90;1.58;;;;;;;;;;6277094;22;20168;-91
2023/08/03 15:07:42;;;;;;;5.43;1.50;;;;;;;;;;6276745;22;20172;-88
2023/08/03 15:10:47;;;;;;;4.85;1.63;;;;;;;;;;6278430;22;20228;-91
2023/08/03 15:13:52;;;;;;;8.20;1.70;;;;;;;;;;6274583;22;20212;-90
2023/08/03 15:17:00;;;;;;;4.75;1.58;;;;;;;;;;6275014;22;20205;-90
2023/08/03 15:20:05;;;;;;;4.63;1.40;;;;;;;;;;6273349;22;20285;-90
